Time,TemperatureF,DewpointF,PressureIn,WindDirection,WindDirectionDegrees,WindSpeedMPH,WindSpeedGustMPH,Humidity,HourlyPrecipIn,Conditions,Clouds,dailyrainin,SolarRadiationWatts/m^2,SoftwareType,DateUTC
2013-03-20 00:02:00,32.0,32.0,-100.00,NNE,22,3.0,8.0,100,0.09,,,0.21,1.000000,,2013-03-20 07:02:00,
2013-03-20 00:11:00,32.0,32.0,-100.00,NNE,22,3.0,8.0,100,0.09,,,0.21,1.000000,,2013-03-20 07:11:00,
2013-03-20 00:32:00,32.0,32.0,-100.00,East,82,4.0,9.0,100,0.03,,,0.24,1.000000,,2013-03-20 07:32:00,
2013-03-20 00:42:00,32.0,32.0,-100.00,East,82,4.0,9.0,100,0.03,,,0.24,1.000000,,2013-03-20 07:42:00,
2013-03-20 00:52:00,32.0,32.0,-100.00,East,82,4.0,9.0,100,0.03,,,0.24,1.000000,,2013-03-20 07:52:00,
2013-03-20 01:02:00,32.0,32.0,-100.00,East,82,4.0,9.0,100,0.03,,,0.24,1.000000,,2013-03-20 08:02:00,
2013-03-20 01:11:00,32.0,32.0,-100.00,East,82,4.0,9.0,100,0.03,,,0.24,1.000000,,2013-03-20 08:11:00,
2013-03-20 01:42:00,32.0,32.0,-100.00,East,100,2.0,10.0,100,0.07,,,0.31,1.000000,,2013-03-20 08:42:00,
2013-03-20 01:52:00,32.0,32.0,-100.00,East,100,2.0,10.0,100,0.07,,,0.31,1.000000,,2013-03-20 08:52:00,
2013-03-20 02:02:00,32.0,32.0,-100.00,East,100,2.0,10.0,100,0.07,,,0.31,1.000000,,2013-03-20 09:02:00,
2013-03-20 02:11:00,32.0,32.0,-100.00,East,100,2.0,10.0,100,0.07,,,0.31,1.000000,,2013-03-20 09:11:00,
2013-03-20 02:43:00,32.0,32.0,-100.00,North,2,2.0,6.0,100,0.04,,,0.35,1.000000,,2013-03-20 09:43:00,
2013-03-20 02:53:00,32.0,32.0,-100.00,North,2,2.0,6.0,100,0.04,,,0.35,1.000000,,2013-03-20 09:53:00,
2013-03-20 03:03:00,32.0,32.0,-100.00,North,2,2.0,6.0,100,0.04,,,0.35,1.000000,,2013-03-20 10:03:00,
2013-03-20 03:12:00,32.0,32.0,-100.00,North,2,2.0,6.0,100,0.04,,,0.35,1.000000,,2013-03-20 10:12:00,
2013-03-20 03:33:00,32.0,32.0,-100.00,SW,229,2.0,5.0,100,0.07,,,0.42,1.000000,,2013-03-20 10:33:00,
2013-03-20 03:43:00,32.0,32.0,-100.00,SW,229,2.0,5.0,100,0.07,,,0.42,1.000000,,2013-03-20 10:43:00,
2013-03-20 03:53:00,32.0,32.0,-100.00,SW,229,2.0,5.0,100,0.07,,,0.42,1.000000,,2013-03-20 10:53:00,
2013-03-20 04:02:00,32.0,32.0,-100.00,SW,229,2.0,5.0,100,0.07,,,0.42,1.000000,,2013-03-20 11:02:00,
2013-03-20 04:11:00,32.0,32.0,-100.00,SW,229,2.0,5.0,100,0.07,,,0.42,1.000000,,2013-03-20 11:11:00,
2013-03-20 04:32:00,31.0,31.0,-100.00,NE,49,5.0,9.0,100,0.00,,,-99.99,1.000000,,2013-03-20 11:32:00,
2013-03-20 04:42:00,31.0,31.0,-100.00,NE,49,5.0,9.0,100,0.00,,,-99.99,1.000000,,2013-03-20 11:42:00,
2013-03-20 04:52:00,31.0,31.0,-100.00,NE,49,5.0,9.0,100,0.00,,,-99.99,1.000000,,2013-03-20 11:52:00,
2013-03-20 05:11:00,31.0,31.0,-100.00,NE,49,5.0,9.0,100,0.00,,,-99.99,1.000000,,2013-03-20 12:11:00,
2013-03-20 05:33:00,32.0,32.0,-100.00,NNE,30,2.0,6.0,100,0.02,,,-99.99,1.000000,,2013-03-20 12:33:00,
2013-03-20 05:42:00,32.0,32.0,-100.00,NNE,30,2.0,6.0,100,0.02,,,-99.99,1.000000,,2013-03-20 12:42:00,
2013-03-20 05:52:00,32.0,32.0,-100.00,NNE,30,2.0,6.0,100,0.02,,,-99.99,1.000000,,2013-03-20 12:52:00,
2013-03-20 06:02:00,32.0,32.0,-100.00,NNE,30,2.0,6.0,100,0.02,,,-99.99,1.000000,,2013-03-20 13:02:00,
2013-03-20 06:12:00,32.0,32.0,-100.00,NNE,30,2.0,6.0,100,0.02,,,-99.99,1.000000,,2013-03-20 13:12:00,
2013-03-20 06:43:00,32.0,32.0,-100.00,WSW,246,3.0,8.0,100,0.04,,,0.48,1.000000,,2013-03-20 13:43:00,
2013-03-20 06:53:00,32.0,32.0,-100.00,WSW,246,3.0,8.0,100,0.04,,,0.48,1.000000,,2013-03-20 13:53:00,
2013-03-20 07:02:00,32.0,32.0,-100.00,WSW,246,3.0,8.0,100,0.04,,,0.48,1.000000,,2013-03-20 14:02:00,
2013-03-20 07:11:00,32.0,32.0,-100.00,WSW,246,3.0,8.0,100,0.04,,,0.48,1.000000,,2013-03-20 14:11:00,
2013-03-20 07:43:00,33.0,33.0,-100.00,SW,231,2.0,6.0,100,0.00,,,0.48,1.000000,,2013-03-20 14:43:00,
2013-03-20 07:52:00,33.0,33.0,-100.00,SW,231,2.0,6.0,100,0.00,,,0.48,1.000000,,2013-03-20 14:52:00,
2013-03-20 08:02:00,33.0,33.0,-100.00,SW,231,2.0,6.0,100,0.00,,,0.48,1.000000,,2013-03-20 15:02:00,
2013-03-20 08:12:00,33.0,33.0,-100.00,SW,231,2.0,6.0,100,0.00,,,0.48,1.000000,,2013-03-20 15:12:00,
2013-03-20 08:43:00,35.0,35.0,-100.00,NNW,344,2.0,8.0,100,0.03,,,0.51,52.000000,,2013-03-20 15:43:00,
2013-03-20 08:53:00,35.0,35.0,-100.00,NNW,344,2.0,8.0,100,0.03,,,0.51,52.000000,,2013-03-20 15:53:00,
2013-03-20 09:02:00,35.0,35.0,-100.00,NNW,344,2.0,8.0,100,0.03,,,0.51,52.000000,,2013-03-20 16:02:00,
2013-03-20 09:12:00,35.0,35.0,-100.00,NNW,344,2.0,8.0,100,0.03,,,0.51,52.000000,,2013-03-20 16:12:00,
2013-03-20 09:33:00,38.0,38.0,-100.00,West,268,7.0,12.0,100,0.13,,,0.64,68.000000,,2013-03-20 16:33:00,
2013-03-20 09:43:00,38.0,38.0,-100.00,West,268,7.0,12.0,100,0.13,,,0.64,68.000000,,2013-03-20 16:43:00,
2013-03-20 09:53:00,38.0,38.0,-100.00,West,268,7.0,12.0,100,0.13,,,0.64,68.000000,,2013-03-20 16:53:00,
2013-03-20 10:02:00,38.0,38.0,-100.00,West,268,7.0,12.0,100,0.13,,,0.64,68.000000,,2013-03-20 17:02:00,
2013-03-20 10:11:00,38.0,38.0,-100.00,West,268,7.0,12.0,100,0.13,,,0.64,68.000000,,2013-03-20 17:11:00,
2013-03-20 10:42:00,38.0,38.0,-100.00,West,262,14.0,24.0,100,0.19,,,0.83,42.000000,,2013-03-20 17:42:00,
2013-03-20 10:53:00,38.0,38.0,-100.00,West,262,14.0,24.0,100,0.19,,,0.83,42.000000,,2013-03-20 17:53:00,
2013-03-20 11:02:00,38.0,38.0,-100.00,West,262,14.0,24.0,100,0.19,,,0.83,42.000000,,2013-03-20 18:02:00,
2013-03-20 11:12:00,38.0,38.0,-100.00,West,262,14.0,24.0,100,0.19,,,0.83,42.000000,,2013-03-20 18:12:00,
2013-03-20 11:34:00,39.0,39.0,-100.00,West,267,21.0,35.0,100,0.03,,,0.86,155.000000,,2013-03-20 18:34:00,
2013-03-20 11:43:00,39.0,39.0,-100.00,West,267,21.0,35.0,100,0.03,,,0.86,155.000000,,2013-03-20 18:43:00,
2013-03-20 11:52:00,39.0,39.0,-100.00,West,267,21.0,35.0,100,0.03,,,0.86,155.000000,,2013-03-20 18:52:00,
2013-03-20 12:02:00,39.0,39.0,-100.00,West,267,21.0,35.0,100,0.03,,,0.86,155.000000,,2013-03-20 19:02:00,
2013-03-20 12:12:00,39.0,39.0,-100.00,West,267,21.0,35.0,100,0.03,,,0.86,155.000000,,2013-03-20 19:12:00,
2013-03-20 12:42:00,39.0,39.0,-100.00,West,266,23.0,44.0,100,0.01,,,0.87,448.000000,,2013-03-20 19:42:00,
2013-03-20 12:53:00,39.0,39.0,-100.00,West,266,23.0,44.0,100,0.01,,,0.87,448.000000,,2013-03-20 19:53:00,
2013-03-20 13:02:00,39.0,39.0,-100.00,West,266,23.0,44.0,100,0.01,,,0.87,448.000000,,2013-03-20 20:02:00,
2013-03-20 13:12:00,39.0,39.0,-100.00,West,266,23.0,44.0,100,0.01,,,0.87,448.000000,,2013-03-20 20:12:00,
2013-03-20 13:32:00,40.0,36.0,-100.00,West,264,22.0,44.0,86,0.00,,,0.87,491.000000,,2013-03-20 20:32:00,
2013-03-20 13:42:00,40.0,36.0,-100.00,West,264,22.0,44.0,86,0.00,,,0.87,491.000000,,2013-03-20 20:42:00,
2013-03-20 13:53:00,40.0,36.0,-100.00,West,264,22.0,44.0,86,0.00,,,0.87,491.000000,,2013-03-20 20:53:00,
2013-03-20 14:02:00,40.0,36.0,-100.00,West,264,22.0,44.0,86,0.00,,,0.87,491.000000,,2013-03-20 21:02:00,
2013-03-20 14:12:00,40.0,36.0,-100.00,West,264,22.0,44.0,86,0.00,,,0.87,491.000000,,2013-03-20 21:12:00,
2013-03-20 14:33:00,40.0,37.0,-100.00,West,268,19.0,39.0,88,0.00,,,0.87,399.000000,,2013-03-20 21:33:00,
2013-03-20 14:42:00,40.0,37.0,-100.00,West,268,19.0,39.0,88,0.00,,,0.87,399.000000,,2013-03-20 21:42:00,
2013-03-20 14:52:00,40.0,37.0,-100.00,West,268,19.0,39.0,88,0.00,,,0.87,399.000000,,2013-03-20 21:52:00,
2013-03-20 15:02:00,40.0,37.0,-100.00,West,268,19.0,39.0,88,0.00,,,0.87,399.000000,,2013-03-20 22:02:00,
2013-03-20 15:12:00,40.0,37.0,-100.00,West,268,19.0,39.0,88,0.00,,,0.87,399.000000,,2013-03-20 22:12:00,
2013-03-20 15:33:00,36.0,35.0,-100.00,West,259,18.0,43.0,98,0.01,,,0.88,321.000000,,2013-03-20 22:33:00,
2013-03-20 15:43:00,36.0,35.0,-100.00,West,259,18.0,43.0,98,0.01,,,0.88,321.000000,,2013-03-20 22:43:00,
2013-03-20 15:52:00,36.0,35.0,-100.00,West,259,18.0,43.0,98,0.01,,,0.88,321.000000,,2013-03-20 22:52:00,
2013-03-20 16:02:00,36.0,35.0,-100.00,West,259,18.0,43.0,98,0.01,,,0.88,321.000000,,2013-03-20 23:02:00,
2013-03-20 16:12:00,36.0,35.0,-100.00,West,259,18.0,43.0,98,0.01,,,0.88,321.000000,,2013-03-20 23:12:00,
2013-03-20 16:33:00,37.0,37.0,-100.00,West,262,15.0,34.0,100,0.01,,,0.89,279.000000,,2013-03-20 23:33:00,
2013-03-20 16:43:00,37.0,37.0,-100.00,West,262,15.0,34.0,100,0.01,,,0.89,279.000000,,2013-03-20 23:43:00,
2013-03-20 16:52:00,37.0,37.0,-100.00,West,262,15.0,34.0,100,0.01,,,0.89,279.000000,,2013-03-20 23:52:00,
2013-03-20 17:02:00,37.0,37.0,-100.00,West,262,15.0,34.0,100,0.01,,,0.89,279.000000,,2013-03-21 00:02:00,
2013-03-20 17:12:00,37.0,37.0,-100.00,West,262,15.0,34.0,100,0.01,,,0.89,279.000000,,2013-03-21 00:12:00,
2013-03-20 17:33:00,34.0,34.0,-100.00,West,263,14.0,30.0,100,0.03,,,0.92,76.000000,,2013-03-21 00:33:00,
2013-03-20 17:42:00,34.0,34.0,-100.00,West,263,14.0,30.0,100,0.03,,,0.92,76.000000,,2013-03-21 00:42:00,
2013-03-20 17:52:00,34.0,34.0,-100.00,West,263,14.0,30.0,100,0.03,,,0.92,76.000000,,2013-03-21 00:52:00,
2013-03-20 18:02:00,34.0,34.0,-100.00,West,263,14.0,30.0,100,0.03,,,0.92,76.000000,,2013-03-21 01:02:00,
2013-03-20 18:11:00,34.0,34.0,-100.00,West,263,14.0,30.0,100,0.03,,,0.92,76.000000,,2013-03-21 01:11:00,
2013-03-20 18:42:00,33.0,33.0,-100.00,West,263,12.0,27.0,100,0.02,,,0.92,125.000000,,2013-03-21 01:42:00,
2013-03-20 18:52:00,33.0,33.0,-100.00,West,263,12.0,27.0,100,0.02,,,0.92,125.000000,,2013-03-21 01:52:00,
2013-03-20 19:02:00,33.0,33.0,-100.00,West,263,12.0,27.0,100,0.02,,,0.92,125.000000,,2013-03-21 02:02:00,
2013-03-20 19:12:00,33.0,33.0,-100.00,West,263,12.0,27.0,100,0.02,,,0.92,125.000000,,2013-03-21 02:12:00,
2013-03-20 20:02:00,32.0,32.0,-100.00,West,265,10.0,25.0,100,0.04,,,0.92,11.000000,,2013-03-21 03:02:00,
2013-03-20 20:12:00,32.0,32.0,-100.00,West,265,10.0,25.0,100,0.04,,,0.92,11.000000,,2013-03-21 03:12:00,
2013-03-20 20:33:00,31.0,31.0,-100.00,West,268,9.0,18.0,100,0.07,,,0.96,1.000000,,2013-03-21 03:33:00,
2013-03-20 20:43:00,31.0,31.0,-100.00,West,268,9.0,18.0,100,0.07,,,0.96,1.000000,,2013-03-21 03:43:00,
2013-03-20 20:53:00,31.0,31.0,-100.00,West,268,9.0,18.0,100,0.07,,,0.96,1.000000,,2013-03-21 03:53:00,
2013-03-20 21:02:00,31.0,31.0,-100.00,West,268,9.0,18.0,100,0.07,,,0.96,1.000000,,2013-03-21 04:02:00,
2013-03-20 21:12:00,31.0,31.0,-100.00,West,268,9.0,18.0,100,0.07,,,0.96,1.000000,,2013-03-21 04:12:00,
2013-03-20 21:43:00,31.0,31.0,-100.00,West,261,12.0,21.0,100,0.04,,,0.97,1.000000,,2013-03-21 04:43:00,
2013-03-20 21:53:00,31.0,31.0,-100.00,West,261,12.0,21.0,100,0.04,,,0.97,1.000000,,2013-03-21 04:53:00,
2013-03-20 22:02:00,31.0,31.0,-100.00,West,261,12.0,21.0,100,0.04,,,0.97,1.000000,,2013-03-21 05:02:00,
2013-03-20 22:12:00,31.0,31.0,-100.00,West,261,12.0,21.0,100,0.04,,,0.97,1.000000,,2013-03-21 05:12:00,
2013-03-20 22:33:00,30.0,30.0,-100.00,West,262,11.0,28.0,100,0.01,,,0.98,1.000000,,2013-03-21 05:33:00,
2013-03-20 22:44:00,30.0,30.0,-100.00,West,262,11.0,28.0,100,0.01,,,0.98,1.000000,,2013-03-21 05:44:00,
2013-03-20 22:52:00,30.0,30.0,-100.00,West,262,11.0,28.0,100,0.01,,,0.98,1.000000,,2013-03-21 05:52:00,
2013-03-20 23:02:00,30.0,30.0,-100.00,West,262,11.0,28.0,100,0.01,,,0.98,1.000000,,2013-03-21 06:02:00,
2013-03-20 23:12:00,30.0,30.0,-100.00,West,262,11.0,28.0,100,0.01,,,0.98,1.000000,,2013-03-21 06:12:00,
2013-03-20 23:32:00,29.0,29.0,-100.00,West,265,9.0,28.0,100,0.01,,,0.90,1.000000,,2013-03-21 06:32:00,
2013-03-20 23:42:00,29.0,29.0,-100.00,West,265,9.0,28.0,100,0.01,,,0.90,1.000000,,2013-03-21 06:42:00,
2013-03-20 23:52:00,29.0,29.0,-100.00,West,265,9.0,28.0,100,0.01,,,0.90,1.000000,,2013-03-21 06:52:00,